createdAt,value
2023-03-29T00:00:52.867Z,998.72
2023-03-29T00:01:52.893Z,1000.00
2023-03-29T00:02:52.944Z,1000.00
2023-03-29T00:03:53.013Z,953.19
2023-03-29T00:04:52.862Z,940.47
2023-03-29T00:05:52.891Z,957.85
2023-03-29T00:06:52.867Z,929.34
2023-03-29T00:07:52.870Z,972.65
2023-03-29T00:08:52.876Z,989.67
2023-03-29T00:09:52.886Z,1000.00
2023-03-29T00:10:52.871Z,1000.00
2023-03-29T00:11:52.871Z,1000.00
2023-03-29T00:12:52.904Z,1000.00
2023-03-29T00:13:52.888Z,935.49
2023-03-29T00:14:52.869Z,995.94
2023-03-29T00:15:52.893Z,1000.00
2023-03-29T00:16:52.931Z,990.73
2023-03-29T00:17:52.931Z,921.06
2023-03-29T00:18:52.906Z,941.85
2023-03-29T00:19:52.887Z,864.21
2023-03-29T00:20:52.892Z,793.53
2023-03-29T00:21:52.934Z,785.40
2023-03-29T00:22:52.907Z,782.49
2023-03-29T00:23:52.900Z,758.50
2023-03-29T00:24:52.913Z,736.87
2023-03-29T00:25:52.926Z,743.66
2023-03-29T00:26:52.914Z,659.19
2023-03-29T00:27:52.909Z,765.71
2023-03-29T00:28:52.910Z,637.73
2023-03-29T00:29:52.911Z,568.74
2023-03-29T00:30:52.965Z,596.08
2023-03-29T00:31:53.052Z,636.10
2023-03-29T00:32:52.974Z,631.57
2023-03-29T00:33:52.955Z,590.58
2023-03-29T00:34:52.951Z,553.94
2023-03-29T00:35:53.003Z,493.27
2023-03-29T00:36:53.032Z,483.83
2023-03-29T00:37:53.086Z,441.88
2023-03-29T00:38:52.954Z,416.17
2023-03-29T00:39:52.966Z,397.39
2023-03-29T00:40:52.939Z,434.27
2023-03-29T00:41:53.004Z,672.72
2023-03-29T00:42:52.944Z,1000.00
2023-03-29T00:43:52.965Z,964.19
2023-03-29T00:44:52.942Z,805.52
2023-03-29T00:45:52.972Z,734.25
2023-03-29T00:46:52.978Z,784.78
2023-03-29T00:47:52.986Z,795.50
2023-03-29T00:48:52.934Z,795.77
2023-03-29T00:49:52.941Z,748.66
2023-03-29T00:50:52.952Z,705.32
2023-03-29T00:51:52.960Z,697.77
2023-03-29T00:52:53.006Z,713.52
2023-03-29T00:53:53.065Z,707.27
2023-03-29T00:54:53.128Z,703.54
2023-03-29T00:55:53.133Z,616.69
2023-03-29T00:56:53.178Z,686.19
2023-03-29T00:57:53.138Z,745.21
2023-03-29T00:58:53.152Z,718.02
2023-03-29T00:59:53.141Z,772.31
2023-03-29T01:00:53.142Z,752.56
2023-03-29T01:01:53.152Z,716.84
2023-03-29T01:02:53.239Z,669.59
2023-03-29T01:03:53.251Z,658.93
2023-03-29T01:04:53.141Z,738.29
2023-03-29T01:05:53.141Z,854.69
2023-03-29T01:06:53.206Z,1000.00
2023-03-29T01:07:53.142Z,1000.00
2023-03-29T01:08:53.137Z,1000.00
2023-03-29T01:09:53.136Z,918.68
2023-03-29T01:10:53.124Z,772.17
2023-03-29T01:11:53.132Z,759.61
2023-03-29T01:12:53.120Z,838.50
2023-03-29T01:13:53.120Z,752.14
2023-03-29T01:14:53.122Z,617.90
2023-03-29T01:15:53.125Z,610.27
2023-03-29T01:16:53.126Z,590.97
2023-03-29T01:17:53.142Z,556.45
2023-03-29T01:18:53.101Z,552.05
2023-03-29T01:19:53.128Z,592.45
2023-03-29T01:20:53.107Z,648.27
2023-03-29T01:21:53.097Z,612.88
2023-03-29T01:22:53.126Z,639.19
2023-03-29T01:23:53.107Z,582.54
2023-03-29T01:24:53.093Z,646.75
2023-03-29T01:25:53.118Z,617.82
2023-03-29T01:26:53.130Z,588.78
2023-03-29T01:27:53.123Z,673.68
2023-03-29T01:28:53.122Z,577.18
2023-03-29T01:29:53.114Z,576.57
2023-03-29T01:30:53.106Z,586.34
2023-03-29T01:31:53.112Z,560.96
2023-03-29T01:32:53.174Z,518.11
2023-03-29T01:33:53.134Z,467.39
2023-03-29T01:34:53.176Z,434.09
2023-03-29T01:35:53.232Z,437.54
2023-03-29T01:36:53.281Z,446.15
2023-03-29T01:37:53.334Z,502.28
2023-03-29T01:38:53.379Z,525.21
2023-03-29T01:39:53.425Z,455.28
2023-03-29T01:40:53.458Z,498.95
2023-03-29T01:41:53.509Z,476.50
2023-03-29T01:42:53.569Z,447.69
2023-03-29T01:43:53.647Z,406.36
2023-03-29T01:44:53.670Z,406.34
2023-03-29T01:45:53.751Z,404.24
2023-03-29T01:46:53.772Z,417.11
2023-03-29T01:47:53.826Z,428.03
2023-03-29T01:48:53.860Z,442.77
2023-03-29T01:49:53.906Z,475.36
2023-03-29T01:50:53.919Z,483.03
2023-03-29T01:51:53.892Z,444.36
2023-03-29T01:52:53.890Z,426.33
2023-03-29T01:53:53.904Z,428.96
2023-03-29T01:54:53.893Z,387.33
2023-03-29T01:55:53.903Z,389.63
2023-03-29T01:56:53.925Z,364.41
2023-03-29T01:57:53.914Z,390.75
2023-03-29T01:58:53.897Z,377.33
2023-03-29T01:59:53.892Z,396.51
2023-03-29T02:00:53.946Z,435.04
2023-03-29T02:01:53.954Z,437.29
2023-03-29T02:02:53.984Z,407.97
2023-03-29T02:03:53.896Z,427.08
2023-03-29T02:04:53.941Z,413.43
2023-03-29T02:05:53.895Z,416.99
2023-03-29T02:06:53.903Z,367.62
2023-03-29T02:07:53.907Z,366.63
2023-03-29T02:08:53.924Z,362.91
2023-03-29T02:09:53.915Z,356.51
2023-03-29T02:10:53.905Z,359.47
2023-03-29T02:11:53.913Z,329.88
2023-03-29T02:12:53.902Z,360.47
2023-03-29T02:13:53.900Z,357.67
2023-03-29T02:14:53.912Z,362.66
2023-03-29T02:15:53.942Z,325.40
2023-03-29T02:16:53.897Z,356.30
2023-03-29T02:17:53.927Z,338.65
2023-03-29T02:18:53.916Z,324.21
2023-03-29T02:19:53.925Z,331.38
2023-03-29T02:20:53.923Z,326.77
2023-03-29T02:21:53.912Z,306.52
2023-03-29T02:22:53.921Z,316.48
2023-03-29T02:23:53.906Z,332.80
2023-03-29T02:24:53.936Z,323.84
2023-03-29T02:25:53.925Z,326.33
2023-03-29T02:26:53.936Z,326.90
2023-03-29T02:27:53.914Z,322.26
2023-03-29T02:28:53.903Z,332.87
2023-03-29T02:29:53.918Z,331.00
2023-03-29T02:30:53.953Z,321.22
2023-03-29T02:31:53.916Z,308.15
2023-03-29T02:32:53.973Z,314.81
2023-03-29T02:33:53.933Z,324.57
2023-03-29T02:34:53.992Z,329.44
2023-03-29T02:35:54.026Z,321.13
2023-03-29T02:36:54.020Z,328.94
2023-03-29T02:37:54.006Z,325.18
2023-03-29T02:38:54.003Z,329.51
2023-03-29T02:39:54.016Z,330.29
2023-03-29T02:40:54.013Z,351.70
2023-03-29T02:41:54.004Z,354.82
2023-03-29T02:42:54.453Z,367.86
2023-03-29T02:43:54.014Z,378.37
2023-03-29T02:44:54.021Z,349.64
2023-03-29T02:45:54.007Z,377.76
2023-03-29T02:46:54.072Z,400.70
2023-03-29T02:47:54.046Z,419.82
2023-03-29T02:48:54.020Z,420.90
2023-03-29T02:49:54.025Z,397.45
2023-03-29T02:50:54.021Z,445.02
2023-03-29T02:51:53.999Z,460.12
2023-03-29T02:52:54.029Z,442.89
2023-03-29T02:53:54.011Z,440.08
2023-03-29T02:54:53.994Z,461.67
2023-03-29T02:55:54.006Z,467.33
2023-03-29T02:56:54.052Z,529.49
2023-03-29T02:57:53.999Z,561.94
2023-03-29T02:58:54.006Z,597.97
2023-03-29T02:59:53.990Z,575.17
2023-03-29T03:00:53.983Z,523.35
2023-03-29T03:01:54.058Z,528.85
2023-03-29T03:02:54.029Z,518.01
2023-03-29T03:03:54.080Z,571.69
2023-03-29T03:04:53.988Z,583.72
2023-03-29T03:05:53.981Z,587.98
2023-03-29T03:06:53.976Z,571.34
2023-03-29T03:07:53.963Z,616.00
2023-03-29T03:08:53.983Z,581.02
2023-03-29T03:09:53.961Z,570.02
2023-03-29T03:10:53.972Z,565.47
2023-03-29T03:11:53.952Z,526.15
2023-03-29T03:12:53.962Z,543.04
2023-03-29T03:13:53.956Z,525.08
2023-03-29T03:14:53.950Z,536.35
2023-03-29T03:15:53.993Z,535.68
2023-03-29T03:16:53.939Z,533.20
2023-03-29T03:17:53.991Z,526.10
2023-03-29T03:18:53.924Z,489.58
2023-03-29T03:19:53.927Z,503.84
2023-03-29T03:20:53.910Z,486.75
2023-03-29T03:21:53.903Z,477.58
2023-03-29T03:22:53.896Z,468.09
2023-03-29T03:23:53.877Z,493.45
2023-03-29T03:24:53.900Z,490.49
2023-03-29T03:25:53.902Z,475.36
2023-03-29T03:26:53.906Z,433.17
2023-03-29T03:27:53.875Z,486.19
2023-03-29T03:28:53.854Z,492.82
2023-03-29T03:29:53.849Z,467.67
2023-03-29T03:30:53.845Z,485.08
2023-03-29T03:31:54.388Z,505.94
2023-03-29T03:32:53.854Z,519.52
2023-03-29T03:33:53.857Z,502.14
2023-03-29T03:34:53.846Z,490.06
2023-03-29T03:35:53.883Z,498.93
2023-03-29T03:36:53.841Z,504.05
2023-03-29T03:37:53.819Z,511.69
2023-03-29T03:38:53.817Z,472.16
2023-03-29T03:39:53.812Z,494.46
2023-03-29T03:40:53.829Z,507.61
2023-03-29T03:41:53.823Z,462.60
2023-03-29T03:42:53.836Z,459.24
2023-03-29T03:43:53.831Z,445.88
2023-03-29T03:44:53.831Z,443.17
2023-03-29T03:45:53.836Z,447.45
2023-03-29T03:46:53.824Z,416.16
2023-03-29T03:47:53.859Z,451.84
2023-03-29T03:48:53.821Z,526.85
2023-03-29T03:49:53.810Z,567.41
2023-03-29T03:50:53.807Z,583.44
2023-03-29T03:51:53.795Z,528.12
2023-03-29T03:52:53.806Z,452.30
2023-03-29T03:53:53.807Z,444.58
2023-03-29T03:54:53.802Z,463.41
2023-03-29T03:55:53.798Z,403.24
2023-03-29T03:56:53.862Z,406.01
2023-03-29T03:57:53.815Z,430.26
2023-03-29T03:58:53.792Z,457.59
2023-03-29T03:59:53.797Z,450.58
2023-03-29T04:00:53.803Z,421.72
2023-03-29T04:01:53.784Z,390.57
2023-03-29T04:02:53.845Z,391.85
2023-03-29T04:03:53.844Z,391.64
2023-03-29T04:04:53.778Z,359.87
2023-03-29T04:05:53.794Z,325.70
2023-03-29T04:06:53.795Z,320.76
2023-03-29T04:07:53.799Z,351.49
2023-03-29T04:08:53.813Z,370.73
2023-03-29T04:09:53.786Z,364.77
2023-03-29T04:10:53.785Z,377.61
2023-03-29T04:11:53.801Z,409.09
2023-03-29T04:12:53.849Z,385.01
2023-03-29T04:13:53.898Z,375.74
2023-03-29T04:14:53.936Z,351.94
2023-03-29T04:15:54.104Z,376.07
2023-03-29T04:16:54.013Z,391.88
2023-03-29T04:17:54.145Z,397.52
2023-03-29T04:18:54.024Z,356.25
2023-03-29T04:19:53.977Z,375.77
2023-03-29T04:20:53.995Z,438.87
2023-03-29T04:21:53.970Z,527.89
2023-03-29T04:22:53.983Z,545.67
2023-03-29T04:23:53.967Z,537.95
2023-03-29T04:24:53.955Z,430.42
2023-03-29T04:25:53.978Z,378.34
2023-03-29T04:26:53.966Z,383.50
2023-03-29T04:27:53.952Z,358.80
2023-03-29T04:28:53.956Z,379.93
2023-03-29T04:29:53.965Z,352.03
2023-03-29T04:30:53.964Z,354.87
2023-03-29T04:31:53.960Z,350.69
2023-03-29T04:32:53.985Z,306.82
2023-03-29T04:33:53.949Z,303.23
2023-03-29T04:34:53.957Z,293.77
2023-03-29T04:35:54.002Z,287.80
2023-03-29T04:36:53.961Z,289.57
2023-03-29T04:37:53.929Z,291.03
2023-03-29T04:38:53.931Z,302.61
2023-03-29T04:39:53.920Z,310.86
2023-03-29T04:40:53.925Z,310.59
2023-03-29T04:41:53.914Z,326.19
2023-03-29T04:42:53.914Z,347.00
2023-03-29T04:43:53.915Z,361.89
2023-03-29T04:44:53.946Z,337.71
2023-03-29T04:45:53.980Z,325.73
2023-03-29T04:46:53.955Z,347.74
2023-03-29T04:47:53.973Z,355.62
2023-03-29T04:48:53.934Z,356.36
2023-03-29T04:49:53.920Z,403.30
2023-03-29T04:50:53.925Z,403.95
2023-03-29T04:51:53.922Z,386.83
2023-03-29T04:52:53.918Z,398.78
2023-03-29T04:53:53.909Z,421.89
2023-03-29T04:54:53.910Z,426.38
2023-03-29T04:55:53.902Z,464.41
2023-03-29T04:56:53.973Z,526.68
2023-03-29T04:57:53.980Z,640.41
2023-03-29T04:58:54.037Z,756.90
2023-03-29T04:59:54.081Z,820.47
2023-03-29T05:00:54.100Z,831.71
2023-03-29T05:01:54.127Z,814.88
2023-03-29T05:02:54.182Z,797.75
2023-03-29T05:03:54.126Z,836.54
2023-03-29T05:04:54.109Z,871.18
2023-03-29T05:05:54.128Z,725.37
2023-03-29T05:06:54.117Z,615.31
2023-03-29T05:07:54.100Z,545.53
2023-03-29T05:08:54.106Z,594.03
2023-03-29T05:09:54.112Z,633.32
2023-03-29T05:10:54.087Z,608.43
2023-03-29T05:11:54.105Z,565.65
2023-03-29T05:12:54.330Z,606.56
2023-03-29T05:13:54.116Z,551.18
2023-03-29T05:14:54.094Z,525.81
2023-03-29T05:15:54.138Z,494.45
2023-03-29T05:16:54.154Z,500.99
2023-03-29T05:17:54.185Z,517.75
2023-03-29T05:18:54.222Z,519.37
2023-03-29T05:19:54.263Z,526.48
2023-03-29T05:20:54.269Z,685.16
2023-03-29T05:21:54.286Z,945.29
2023-03-29T05:22:54.261Z,943.61
2023-03-29T05:23:54.319Z,1000.00
2023-03-29T05:24:54.292Z,1000.00
2023-03-29T05:25:54.309Z,1000.00
2023-03-29T05:26:54.314Z,979.17
2023-03-29T05:27:54.323Z,999.14
2023-03-29T05:28:54.335Z,1000.00
2023-03-29T05:29:54.391Z,1000.00
2023-03-29T05:30:54.346Z,942.18
2023-03-29T05:31:54.394Z,912.54
2023-03-29T05:32:54.446Z,809.39
2023-03-29T05:33:54.398Z,818.04
2023-03-29T05:34:54.406Z,781.07
2023-03-29T05:35:54.462Z,753.03
2023-03-29T05:36:54.416Z,672.27
2023-03-29T05:37:54.437Z,691.46
2023-03-29T05:38:54.459Z,720.52
2023-03-29T05:39:54.460Z,755.60
2023-03-29T05:40:55.498Z,660.77
2023-03-29T05:41:54.441Z,745.15
2023-03-29T05:42:54.446Z,829.48
2023-03-29T05:43:54.435Z,1000.00
2023-03-29T05:44:54.601Z,1000.00
2023-03-29T05:45:54.675Z,1000.00
2023-03-29T05:46:54.415Z,1000.00
2023-03-29T05:47:54.501Z,1000.00
2023-03-29T05:48:54.397Z,1000.00
2023-03-29T05:49:54.387Z,1000.00
2023-03-29T05:50:54.387Z,1000.00
2023-03-29T05:51:54.393Z,1000.00
2023-03-29T05:52:54.378Z,1000.00
2023-03-29T05:53:54.408Z,1000.00
2023-03-29T05:54:54.449Z,1000.00
2023-03-29T05:55:54.485Z,1000.00
2023-03-29T05:56:54.593Z,1000.00
2023-03-29T05:57:54.554Z,1000.00
2023-03-29T05:58:55.088Z,1000.00
2023-03-29T05:59:54.617Z,1000.00
2023-03-29T06:00:54.652Z,1000.00
2023-03-29T06:01:54.750Z,1000.00
2023-03-29T06:02:56.370Z,1000.00
2023-03-29T06:03:54.975Z,1000.00
2023-03-29T06:04:54.733Z,1000.00
2023-03-29T06:05:54.700Z,1000.00
2023-03-29T06:06:54.685Z,1000.00
2023-03-29T06:07:54.684Z,1000.00
2023-03-29T06:08:54.681Z,1000.00
2023-03-29T06:09:54.677Z,1000.00
2023-03-29T06:10:54.681Z,1000.00
2023-03-29T06:11:54.653Z,1000.00
2023-03-29T06:12:54.656Z,1000.00
2023-03-29T06:13:54.664Z,1000.00
2023-03-29T06:14:54.636Z,1000.00
2023-03-29T06:15:54.632Z,1000.00
2023-03-29T06:16:54.673Z,1000.00
2023-03-29T06:17:54.643Z,1000.00
2023-03-29T06:18:54.615Z,1000.00
2023-03-29T06:19:54.609Z,1000.00
2023-03-29T06:20:54.595Z,1000.00
2023-03-29T06:21:54.616Z,1000.00
2023-03-29T06:22:54.589Z,1000.00
2023-03-29T06:23:54.596Z,1000.00
2023-03-29T06:24:54.583Z,1000.00
2023-03-29T06:25:54.681Z,1000.00
2023-03-29T06:26:54.577Z,1000.00
2023-03-29T06:27:54.556Z,1000.00
2023-03-29T06:28:54.542Z,1000.00
2023-03-29T06:29:54.536Z,1000.00
2023-03-29T06:30:54.562Z,1000.00
2023-03-29T06:31:54.527Z,1000.00
2023-03-29T06:32:54.614Z,1000.00
2023-03-29T06:33:54.530Z,935.65
2023-03-29T06:34:54.543Z,619.30
2023-03-29T06:35:54.538Z,782.63
2023-03-29T06:36:54.495Z,1000.00
2023-03-29T06:37:54.539Z,1000.00
2023-03-29T06:38:54.503Z,1000.00
2023-03-29T06:39:54.555Z,1000.00
2023-03-29T06:40:54.590Z,1000.00
2023-03-29T06:41:54.607Z,1000.00
2023-03-29T06:42:54.628Z,1000.00
2023-03-29T06:43:54.630Z,1000.00
2023-03-29T06:44:54.626Z,1000.00
2023-03-29T06:45:54.934Z,1000.00
2023-03-29T06:46:54.713Z,1000.00
2023-03-29T06:47:54.777Z,1000.00
2023-03-29T06:48:54.711Z,1000.00
2023-03-29T06:49:54.743Z,1000.00
2023-03-29T06:50:54.748Z,1000.00
2023-03-29T06:51:54.769Z,1000.00
2023-03-29T06:52:55.198Z,1000.00
2023-03-29T06:53:54.865Z,1000.00
2023-03-29T06:54:54.875Z,1000.00
2023-03-29T06:55:54.960Z,1000.00
2023-03-29T06:56:55.153Z,1000.00
2023-03-29T06:57:55.184Z,1000.00
2023-03-29T06:58:55.120Z,1000.00
2023-03-29T06:59:55.217Z,1000.00
2023-03-29T07:00:55.196Z,1000.00
2023-03-29T07:01:55.274Z,1000.00
2023-03-29T07:02:55.729Z,1000.00
2023-03-29T07:03:55.319Z,1000.00
2023-03-29T07:04:55.322Z,1000.00
2023-03-29T07:05:55.370Z,1000.00
2023-03-29T07:06:55.429Z,1000.00
2023-03-29T07:07:55.693Z,1000.00
2023-03-29T07:08:55.464Z,931.07
2023-03-29T07:09:55.562Z,903.22
2023-03-29T07:10:55.477Z,1000.00
2023-03-29T07:11:55.491Z,1000.00
2023-03-29T07:12:55.497Z,1000.00
2023-03-29T07:13:55.521Z,1000.00
2023-03-29T07:14:55.507Z,1000.00
2023-03-29T07:15:55.612Z,1000.00
2023-03-29T07:16:55.523Z,1000.00
2023-03-29T07:17:55.596Z,1000.00
2023-03-29T07:18:55.565Z,1000.00
2023-03-29T07:19:55.577Z,1000.00
2023-03-29T07:20:55.602Z,1000.00
2023-03-29T07:21:55.704Z,1000.00
2023-03-29T07:22:55.604Z,1000.00
2023-03-29T07:23:55.608Z,1000.00
2023-03-29T07:24:55.614Z,1000.00
2023-03-29T07:25:55.620Z,1000.00
2023-03-29T07:27:04.142Z,1000.00
2023-03-29T07:27:56.719Z,1000.00
2023-03-29T07:28:55.636Z,1000.00
2023-03-29T07:29:55.639Z,527.11
2023-03-29T07:30:55.624Z,693.63
2023-03-29T07:31:55.598Z,366.23
2023-03-29T07:32:55.848Z,340.52
2023-03-29T07:33:55.629Z,365.74
2023-03-29T07:34:55.585Z,580.26
2023-03-29T07:35:55.590Z,754.24
2023-03-29T07:36:55.725Z,791.58
2023-03-29T07:37:55.715Z,715.99
2023-03-29T07:38:56.429Z,713.93
2023-03-29T07:39:55.547Z,761.75
2023-03-29T07:40:55.542Z,747.21
2023-03-29T07:41:55.570Z,793.00
2023-03-29T07:42:55.552Z,822.26
2023-03-29T07:43:55.563Z,859.79
2023-03-29T07:44:55.692Z,860.30
2023-03-29T07:45:55.603Z,854.50
2023-03-29T07:46:55.612Z,844.71
2023-03-29T07:47:55.705Z,911.55
2023-03-29T07:48:55.642Z,971.22
2023-03-29T07:49:55.707Z,1000.00
2023-03-29T07:50:55.644Z,1000.00
2023-03-29T07:51:55.652Z,1000.00
2023-03-29T07:52:55.705Z,1000.00
2023-03-29T07:53:55.736Z,1000.00
2023-03-29T07:54:56.199Z,1000.00
2023-03-29T07:55:55.869Z,1000.00
2023-03-29T07:56:55.947Z,1000.00
2023-03-29T07:57:56.613Z,1000.00
2023-03-29T07:58:56.020Z,1000.00
2023-03-29T07:59:56.206Z,1000.00
2023-03-29T08:00:56.184Z,1000.00
2023-03-29T08:01:56.158Z,1000.00
2023-03-29T08:02:56.225Z,1000.00
2023-03-29T08:03:56.300Z,1000.00
2023-03-29T08:04:56.335Z,1000.00
2023-03-29T08:05:56.295Z,1000.00
2023-03-29T08:06:56.329Z,1000.00
2023-03-29T08:07:56.373Z,1000.00
2023-03-29T08:08:56.414Z,1000.00
2023-03-29T08:09:56.431Z,1000.00
2023-03-29T08:10:56.482Z,1000.00
2023-03-29T08:11:56.536Z,1000.00
2023-03-29T08:12:56.528Z,1000.00
2023-03-29T08:13:56.560Z,1000.00
2023-03-29T08:14:56.713Z,301.62
2023-03-29T08:15:56.649Z,141.79
2023-03-29T08:16:56.700Z,78.47
2023-03-29T08:17:56.784Z,61.38
2023-03-29T08:18:56.746Z,65.56
2023-03-29T08:19:57.224Z,83.03
2023-03-29T08:20:56.797Z,102.69
2023-03-29T08:21:56.785Z,80.49
2023-03-29T08:22:56.834Z,89.59
2023-03-29T08:23:56.980Z,128.52
2023-03-29T08:24:57.226Z,170.91
2023-03-29T08:25:56.962Z,226.39
2023-03-29T08:26:56.960Z,293.23
2023-03-29T08:27:57.205Z,427.78
2023-03-29T08:28:56.996Z,509.47
2023-03-29T08:29:57.066Z,604.62
2023-03-29T08:30:57.152Z,708.25
2023-03-29T08:31:57.126Z,779.67
2023-03-29T08:32:57.191Z,861.24
2023-03-29T08:33:57.166Z,1000.00
2023-03-29T08:34:57.173Z,1000.00
2023-03-29T08:35:57.239Z,1000.00
2023-03-29T08:36:57.214Z,1000.00
2023-03-29T08:37:57.220Z,1000.00
2023-03-29T08:38:57.244Z,1000.00
2023-03-29T08:39:57.271Z,1000.00
2023-03-29T08:40:57.242Z,1000.00
2023-03-29T08:41:57.254Z,1000.00
2023-03-29T08:42:57.729Z,1000.00
2023-03-29T08:43:57.300Z,1000.00
2023-03-29T08:44:57.286Z,1000.00
2023-03-29T08:45:57.369Z,1000.00
2023-03-29T08:46:57.392Z,955.92
2023-03-29T08:47:57.343Z,822.51
2023-03-29T08:48:57.363Z,886.53
2023-03-29T08:49:57.412Z,1000.00
2023-03-29T08:50:57.538Z,1000.00
2023-03-29T08:51:57.487Z,1000.00
2023-03-29T08:52:57.530Z,1000.00
2023-03-29T08:53:57.573Z,1000.00
2023-03-29T08:54:57.637Z,1000.00
2023-03-29T08:55:57.700Z,1000.00
2023-03-29T08:56:57.736Z,1000.00
2023-03-29T08:57:57.778Z,1000.00
2023-03-29T08:58:57.881Z,1000.00
2023-03-29T08:59:57.859Z,1000.00
2023-03-29T09:00:57.891Z,1000.00
2023-03-29T09:01:58.073Z,1000.00
2023-03-29T09:02:58.046Z,1000.00
2023-03-29T09:03:57.991Z,941.25
2023-03-29T09:04:57.955Z,928.40
2023-03-29T09:05:57.993Z,940.03
2023-03-29T09:06:58.051Z,920.85
2023-03-29T09:07:58.088Z,858.67
2023-03-29T09:08:58.224Z,859.23
2023-03-29T09:09:58.196Z,850.99
2023-03-29T09:10:58.231Z,846.06
2023-03-29T09:11:58.261Z,837.19
2023-03-29T09:12:58.324Z,868.96
2023-03-29T09:13:58.391Z,839.99
2023-03-29T09:14:58.418Z,839.63
2023-03-29T09:15:58.477Z,847.58
2023-03-29T09:16:58.533Z,861.20
2023-03-29T09:17:58.806Z,799.54
2023-03-29T09:18:58.656Z,810.31
2023-03-29T09:19:58.658Z,815.70
2023-03-29T09:20:58.755Z,837.86
2023-03-29T09:21:58.754Z,861.70
2023-03-29T09:22:59.233Z,956.52
2023-03-29T09:23:58.817Z,937.76
2023-03-29T09:24:58.869Z,873.64
2023-03-29T09:25:58.883Z,911.53
2023-03-29T09:26:58.931Z,885.95
2023-03-29T09:27:59.237Z,921.81
2023-03-29T09:28:58.967Z,938.40
2023-03-29T09:29:59.001Z,910.68
2023-03-29T09:30:59.035Z,877.04
2023-03-29T09:31:59.095Z,854.78
2023-03-29T09:32:59.280Z,738.07
2023-03-29T09:33:59.244Z,722.49
2023-03-29T09:34:59.167Z,760.42
2023-03-29T09:35:59.313Z,723.32
2023-03-29T09:36:59.339Z,784.54
2023-03-29T09:37:59.359Z,855.55
2023-03-29T09:38:59.419Z,921.23
2023-03-29T09:39:59.451Z,904.86
2023-03-29T09:40:59.518Z,928.43
2023-03-29T09:41:59.580Z,863.36
2023-03-29T09:42:59.593Z,783.32
2023-03-29T09:43:59.617Z,737.26
2023-03-29T09:44:59.665Z,622.03
2023-03-29T09:45:59.721Z,596.28
2023-03-29T09:46:59.676Z,605.80
2023-03-29T09:47:59.800Z,559.87
2023-03-29T09:49:00.238Z,456.30
2023-03-29T09:49:59.812Z,546.20
2023-03-29T09:50:59.973Z,589.83
2023-03-29T09:51:59.917Z,452.11
2023-03-29T09:52:59.958Z,407.33
2023-03-29T09:53:59.960Z,434.70
2023-03-29T09:54:59.974Z,389.40
2023-03-29T09:56:00.032Z,403.79
2023-03-29T09:57:00.078Z,406.72
2023-03-29T09:58:00.056Z,417.13
2023-03-29T09:59:00.048Z,436.10
2023-03-29T10:00:00.052Z,482.56
2023-03-29T10:01:00.305Z,517.51
2023-03-29T10:02:00.110Z,538.15
2023-03-29T10:03:00.536Z,517.00
2023-03-29T10:04:00.305Z,507.97
2023-03-29T10:05:00.153Z,520.32
2023-03-29T10:06:00.145Z,499.42
2023-03-29T10:07:00.172Z,514.50
2023-03-29T10:08:00.159Z,461.00
2023-03-29T10:09:00.186Z,437.97
2023-03-29T10:10:00.237Z,395.26
2023-03-29T10:11:00.417Z,430.08
2023-03-29T10:12:00.185Z,477.17
2023-03-29T10:13:00.176Z,410.22
2023-03-29T10:14:00.166Z,425.89
2023-03-29T10:15:00.247Z,507.25
2023-03-29T10:16:00.216Z,529.00
2023-03-29T10:17:00.201Z,515.91
2023-03-29T10:18:00.210Z,555.24
2023-03-29T10:19:00.159Z,587.27
2023-03-29T10:20:02.136Z,571.83
2023-03-29T10:21:00.277Z,415.36
2023-03-29T10:22:00.152Z,274.16
2023-03-29T10:23:00.163Z,207.41
2023-03-29T10:24:00.155Z,195.64
2023-03-29T10:25:00.320Z,210.34
2023-03-29T10:26:00.122Z,219.78
2023-03-29T10:27:00.222Z,202.48
2023-03-29T10:28:00.117Z,185.68
2023-03-29T10:29:00.119Z,225.17
2023-03-29T10:30:00.160Z,267.72
2023-03-29T10:31:00.206Z,320.80
2023-03-29T10:32:00.137Z,349.26
2023-03-29T10:33:00.112Z,379.86
2023-03-29T10:34:00.054Z,388.73
2023-03-29T10:35:00.157Z,396.18
2023-03-29T10:36:00.063Z,402.16
2023-03-29T10:37:00.042Z,409.81
2023-03-29T10:38:00.037Z,409.32
2023-03-29T10:39:00.055Z,343.64
2023-03-29T10:40:00.091Z,358.26
2023-03-29T10:41:00.062Z,391.21
2023-03-29T10:42:00.025Z,346.48
2023-03-29T10:43:00.007Z,341.19
2023-03-29T10:43:59.999Z,344.01
2023-03-29T10:45:00.029Z,337.15
2023-03-29T10:45:59.988Z,343.33
2023-03-29T10:46:59.968Z,345.56
2023-03-29T10:48:00.009Z,331.00
2023-03-29T10:48:59.993Z,299.09
2023-03-29T10:49:59.948Z,316.04
2023-03-29T10:51:00.126Z,321.79
2023-03-29T10:51:59.961Z,312.49
2023-03-29T10:52:59.931Z,254.78
2023-03-29T10:53:59.928Z,261.02
2023-03-29T10:54:59.986Z,220.35
2023-03-29T10:55:59.934Z,235.78
2023-03-29T10:56:59.961Z,239.15
2023-03-29T10:57:59.981Z,240.49
2023-03-29T10:59:00.036Z,266.66
2023-03-29T11:00:00.258Z,261.09
2023-03-29T11:01:00.320Z,268.60
2023-03-29T11:02:00.323Z,182.27
2023-03-29T11:03:00.426Z,170.76
2023-03-29T11:04:00.491Z,193.34
2023-03-29T11:05:00.757Z,200.71
2023-03-29T11:06:00.410Z,228.38
2023-03-29T11:07:00.494Z,219.31
2023-03-29T11:08:00.501Z,246.60
2023-03-29T11:09:00.572Z,207.20
2023-03-29T11:10:00.641Z,201.37
2023-03-29T11:11:00.763Z,242.86
2023-03-29T11:12:14.406Z,266.50
2023-03-29T11:13:01.709Z,194.89
2023-03-29T11:14:00.710Z,165.94
2023-03-29T11:15:00.781Z,192.65
2023-03-29T11:16:00.768Z,210.24
2023-03-29T11:17:00.691Z,299.83
2023-03-29T11:18:00.747Z,249.71
2023-03-29T11:19:00.670Z,216.61
2023-03-29T11:20:02.386Z,199.86
2023-03-29T11:21:00.875Z,186.15
2023-03-29T11:22:00.660Z,182.97
2023-03-29T11:23:00.644Z,195.02
2023-03-29T11:24:00.633Z,211.65
2023-03-29T11:25:00.631Z,239.08
2023-03-29T11:26:00.655Z,246.57
2023-03-29T11:27:00.617Z,260.15
2023-03-29T11:28:00.617Z,263.43
2023-03-29T11:29:00.598Z,270.02
2023-03-29T11:30:00.620Z,233.52
2023-03-29T11:31:00.898Z,227.17
2023-03-29T11:32:00.644Z,241.32
2023-03-29T11:33:00.651Z,251.46
2023-03-29T11:34:00.578Z,275.75
2023-03-29T11:35:00.569Z,296.36
2023-03-29T11:36:00.662Z,266.56
2023-03-29T11:37:00.585Z,279.50
2023-03-29T11:38:00.555Z,283.51
2023-03-29T11:39:00.570Z,281.76
2023-03-29T11:40:00.556Z,280.88
2023-03-29T11:41:00.709Z,270.81
2023-03-29T11:42:00.538Z,266.98
2023-03-29T11:43:00.519Z,270.90
2023-03-29T11:44:00.545Z,268.59
2023-03-29T11:45:00.523Z,261.84
2023-03-29T11:46:00.516Z,267.98
2023-03-29T11:47:00.563Z,256.79
2023-03-29T11:48:00.528Z,244.61
2023-03-29T11:49:00.506Z,242.37
2023-03-29T11:50:00.484Z,246.26
2023-03-29T11:51:00.686Z,227.96
2023-03-29T11:52:00.481Z,231.11
2023-03-29T11:53:00.489Z,234.51
2023-03-29T11:54:00.485Z,213.19
2023-03-29T11:55:00.455Z,206.13
2023-03-29T11:56:00.782Z,206.12
2023-03-29T11:57:00.472Z,200.88
2023-03-29T11:58:00.785Z,173.09
2023-03-29T11:59:00.450Z,161.51
2023-03-29T12:00:00.470Z,165.54
2023-03-29T12:01:00.661Z,146.46
2023-03-29T12:02:00.485Z,152.49
2023-03-29T12:03:00.860Z,160.64
2023-03-29T12:04:00.578Z,151.98
2023-03-29T12:05:00.387Z,147.51
2023-03-29T12:06:00.405Z,162.03
2023-03-29T12:07:00.409Z,175.77
2023-03-29T12:08:00.780Z,155.47
2023-03-29T12:09:00.478Z,138.11
2023-03-29T12:10:00.357Z,136.10
2023-03-29T12:11:00.463Z,143.22
2023-03-29T12:12:00.364Z,130.17
2023-03-29T12:13:00.785Z,124.44
2023-03-29T12:14:00.352Z,116.13
2023-03-29T12:15:00.338Z,111.40
2023-03-29T12:16:00.333Z,105.00
2023-03-29T12:17:00.367Z,112.66
2023-03-29T12:18:00.340Z,111.69
2023-03-29T12:19:00.295Z,111.76
2023-03-29T12:20:00.325Z,118.57
2023-03-29T12:21:00.351Z,111.63
2023-03-29T12:22:00.275Z,108.16
2023-03-29T12:23:00.273Z,110.41
2023-03-29T12:24:00.279Z,108.98